createdAt,value
2018-12-10T05:00:35.620Z,977.93
2018-12-10T05:01:35.576Z,977.93
2018-12-10T05:02:35.580Z,978.00
2018-12-10T05:03:35.559Z,977.90
2018-12-10T05:04:35.545Z,977.91
2018-12-10T05:05:35.535Z,977.89
2018-12-10T05:06:35.524Z,977.97
2018-12-10T05:07:35.529Z,977.98
2018-12-10T05:08:35.497Z,977.94
2018-12-10T05:09:35.487Z,978.00
2018-12-10T05:10:35.470Z,977.99
2018-12-10T05:11:35.463Z,978.01
2018-12-10T05:12:35.464Z,978.03
2018-12-10T05:13:35.451Z,978.03
2018-12-10T05:14:35.431Z,978.08
2018-12-10T05:15:35.417Z,978.07
2018-12-10T05:16:35.407Z,978.06
2018-12-10T05:17:35.409Z,978.05
2018-12-10T05:18:35.387Z,978.02
2018-12-10T05:19:35.370Z,978.10
2018-12-10T05:20:35.361Z,978.10
2018-12-10T05:21:35.350Z,978.15
2018-12-10T05:22:35.351Z,978.22
2018-12-10T05:23:35.324Z,978.14
2018-12-10T05:24:35.318Z,978.19
2018-12-10T05:25:35.310Z,978.21
2018-12-10T05:26:35.293Z,978.25
2018-12-10T05:27:35.298Z,978.25
2018-12-10T05:28:35.266Z,978.25
2018-12-10T05:29:35.256Z,978.27
2018-12-10T05:30:35.244Z,978.25
2018-12-10T05:31:35.233Z,978.32
2018-12-10T05:32:35.235Z,978.30
2018-12-10T05:33:35.213Z,978.33
2018-12-10T05:34:35.199Z,978.35
2018-12-10T05:35:35.194Z,978.34
2018-12-10T05:36:35.285Z,978.39
2018-12-10T05:37:35.180Z,978.38
2018-12-10T05:38:35.157Z,978.45
2018-12-10T05:39:35.145Z,978.50
2018-12-10T05:40:35.133Z,978.48
2018-12-10T05:41:35.121Z,978.45
2018-12-10T05:42:35.121Z,978.48
2018-12-10T05:43:35.097Z,978.48
2018-12-10T05:44:35.088Z,978.50
2018-12-10T05:45:35.080Z,978.45
2018-12-10T05:46:35.063Z,978.43
2018-12-10T05:47:35.080Z,978.45
2018-12-10T05:48:35.042Z,978.43
2018-12-10T05:49:35.030Z,978.41
2018-12-10T05:50:35.020Z,978.46
2018-12-10T05:51:35.022Z,978.44
2018-12-10T05:52:35.008Z,978.48
2018-12-10T05:53:34.987Z,978.50
2018-12-10T05:54:34.971Z,978.54
2018-12-10T05:55:34.957Z,978.55
2018-12-10T05:56:34.950Z,978.55
2018-12-10T05:57:34.968Z,978.57
2018-12-10T05:58:34.927Z,978.61
2018-12-10T05:59:34.914Z,978.62
2018-12-10T06:00:34.903Z,978.64
2018-12-10T06:01:34.897Z,978.69
2018-12-10T06:02:34.890Z,978.61
2018-12-10T06:03:34.868Z,978.65
2018-12-10T06:04:34.857Z,978.63
2018-12-10T06:05:34.846Z,978.64
2018-12-10T06:06:34.833Z,978.60
2018-12-10T06:07:34.838Z,978.63
2018-12-10T06:08:34.811Z,978.65
2018-12-10T06:09:34.814Z,978.66
2018-12-10T06:10:34.787Z,978.66
2018-12-10T06:11:34.782Z,978.74
2018-12-10T06:12:34.785Z,978.68
2018-12-10T06:13:34.762Z,978.72
2018-12-10T06:14:34.743Z,978.71
2018-12-10T06:15:34.733Z,978.75
2018-12-10T06:16:34.720Z,978.77
2018-12-10T06:17:34.721Z,978.73
2018-12-10T06:18:34.698Z,978.75
2018-12-10T06:19:34.686Z,978.81
2018-12-10T06:20:34.674Z,978.79
2018-12-10T06:21:34.665Z,978.77
2018-12-10T06:22:34.673Z,978.79
2018-12-10T06:23:34.643Z,978.83
2018-12-10T06:24:34.631Z,978.79
2018-12-10T06:25:34.618Z,978.76
2018-12-10T06:26:34.606Z,978.80
2018-12-10T06:27:34.608Z,978.80
2018-12-10T06:28:34.584Z,978.85
2018-12-10T06:29:34.577Z,978.81
2018-12-10T06:30:34.562Z,978.89
2018-12-10T06:31:34.553Z,978.81
2018-12-10T06:32:34.554Z,978.84
2018-12-10T06:33:34.529Z,978.83
2018-12-10T06:34:34.518Z,978.82
2018-12-10T06:35:34.505Z,978.87
2018-12-10T06:36:34.492Z,978.89
2018-12-10T06:37:37.751Z,978.87
2018-12-10T06:38:34.468Z,978.84
2018-12-10T06:39:34.464Z,978.86
2018-12-10T06:40:34.444Z,978.86
2018-12-10T06:41:34.437Z,978.87
2018-12-10T06:42:34.465Z,978.93
2018-12-10T06:43:34.409Z,978.95
2018-12-10T06:44:34.399Z,979.00
2018-12-10T06:45:34.386Z,978.98
2018-12-10T06:46:34.376Z,978.99
2018-12-10T06:47:34.367Z,978.98
2018-12-10T06:48:34.372Z,979.03
2018-12-10T06:49:34.348Z,978.96
2018-12-10T06:50:34.326Z,978.97
2018-12-10T06:51:34.322Z,978.97
2018-12-10T06:52:34.311Z,978.97
2018-12-10T06:53:34.308Z,979.01
2018-12-10T06:54:34.284Z,979.06
2018-12-10T06:55:34.278Z,979.04
2018-12-10T06:56:34.264Z,979.09
2018-12-10T06:57:34.250Z,979.04
2018-12-10T06:58:34.252Z,979.07
2018-12-10T06:59:34.229Z,979.07
2018-12-10T07:00:34.217Z,979.14
2018-12-10T07:01:34.205Z,979.08
2018-12-10T07:02:34.197Z,979.10
2018-12-10T07:03:34.196Z,979.16
2018-12-10T07:04:34.174Z,979.19
2018-12-10T07:05:34.160Z,979.15
2018-12-10T07:06:34.149Z,979.14
2018-12-10T07:07:34.138Z,979.22
2018-12-10T07:08:34.140Z,979.18
2018-12-10T07:09:34.119Z,979.22
2018-12-10T07:10:34.104Z,979.22
2018-12-10T07:11:34.093Z,979.22
2018-12-10T07:12:34.081Z,979.25
2018-12-10T07:13:34.085Z,979.26
2018-12-10T07:14:34.061Z,979.31
2018-12-10T07:15:34.046Z,979.36
2018-12-10T07:16:34.037Z,979.38
2018-12-10T07:17:34.020Z,979.44
2018-12-10T07:18:34.023Z,979.37
2018-12-10T07:19:33.998Z,979.42
2018-12-10T07:20:33.988Z,979.45
2018-12-10T07:21:33.975Z,979.45
2018-12-10T07:22:33.969Z,979.52
2018-12-10T07:23:33.968Z,979.47
2018-12-10T07:24:33.943Z,979.50
2018-12-10T07:25:33.931Z,979.48
2018-12-10T07:26:33.921Z,979.46
2018-12-10T07:27:33.907Z,979.47
2018-12-10T07:28:33.908Z,979.49
2018-12-10T07:29:33.889Z,979.54
2018-12-10T07:30:41.230Z,979.58
2018-12-10T07:31:34.862Z,979.57
2018-12-10T07:32:33.851Z,979.45
2018-12-10T07:33:33.852Z,979.58
2018-12-10T07:34:33.828Z,979.54
2018-12-10T07:35:33.819Z,979.60
2018-12-10T07:36:33.806Z,979.54
2018-12-10T07:37:33.800Z,979.65
2018-12-10T07:38:33.795Z,979.61
2018-12-10T07:39:33.782Z,979.61
2018-12-10T07:40:33.764Z,979.60
2018-12-10T07:41:33.758Z,979.63
2018-12-10T07:42:33.738Z,979.59
2018-12-10T07:43:33.763Z,979.65
2018-12-10T07:44:33.715Z,979.67
2018-12-10T07:45:33.716Z,979.68
2018-12-10T07:46:33.790Z,979.72
2018-12-10T07:47:33.680Z,979.71
2018-12-10T07:48:33.683Z,979.72
2018-12-10T07:49:33.659Z,979.72
2018-12-10T07:50:33.647Z,979.75
2018-12-10T07:51:33.636Z,979.82
2018-12-10T07:52:33.620Z,979.81
2018-12-10T07:53:33.629Z,979.84
2018-12-10T07:54:33.607Z,979.92
2018-12-10T07:55:33.590Z,979.96
2018-12-10T07:56:33.575Z,979.95
2018-12-10T07:57:33.563Z,979.93
2018-12-10T07:58:33.568Z,979.91
2018-12-10T07:59:33.542Z,979.99
2018-12-10T08:00:33.530Z,980.01
2018-12-10T08:01:33.527Z,980.01
2018-12-10T08:02:33.553Z,980.05
2018-12-10T08:03:33.508Z,980.02
2018-12-10T08:04:33.484Z,980.00
2018-12-10T08:05:33.474Z,979.98
2018-12-10T08:06:33.480Z,980.03
2018-12-10T08:07:33.451Z,979.93
2018-12-10T08:08:33.452Z,979.94
2018-12-10T08:09:33.430Z,979.98
2018-12-10T08:10:33.420Z,979.89
2018-12-10T08:11:33.394Z,979.97
2018-12-10T08:12:33.394Z,979.99
2018-12-10T08:13:33.394Z,979.99
2018-12-10T08:14:33.372Z,980.00
2018-12-10T08:15:33.361Z,979.97
2018-12-10T08:16:33.349Z,979.97
2018-12-10T08:17:33.337Z,980.04
2018-12-10T08:18:33.339Z,980.02
2018-12-10T08:19:33.315Z,980.12
2018-12-10T08:20:33.326Z,980.09
2018-12-10T08:21:33.296Z,980.11
2018-12-10T08:22:33.281Z,980.22
2018-12-10T08:23:33.376Z,980.12
2018-12-10T08:24:33.254Z,980.12
2018-12-10T08:25:33.249Z,980.15
2018-12-10T08:26:33.231Z,980.11
2018-12-10T08:27:33.242Z,980.15
2018-12-10T08:28:33.222Z,980.22
2018-12-10T08:29:33.197Z,980.30
2018-12-10T08:30:33.188Z,980.19
2018-12-10T08:31:33.176Z,980.24
2018-12-10T08:32:33.168Z,980.25
2018-12-10T08:33:33.166Z,980.23
2018-12-10T08:34:41.232Z,980.24
2018-12-10T08:35:40.829Z,980.20
2018-12-10T08:36:34.118Z,980.20
2018-12-10T08:37:33.110Z,980.23
2018-12-10T08:38:33.103Z,980.28
2018-12-10T08:39:33.085Z,980.21
2018-12-10T08:40:33.072Z,980.23
2018-12-10T08:41:33.064Z,980.27
2018-12-10T08:42:33.050Z,980.23
2018-12-10T08:43:33.056Z,980.31
2018-12-10T08:44:33.024Z,980.34
2018-12-10T08:45:33.017Z,980.34
2018-12-10T08:46:33.017Z,980.49
2018-12-10T08:47:32.993Z,980.48
2018-12-10T08:48:33.014Z,980.47
2018-12-10T08:49:32.973Z,980.46
2018-12-10T08:50:32.962Z,980.47
2018-12-10T08:51:32.945Z,980.52
2018-12-10T08:52:32.933Z,980.49
2018-12-10T08:53:32.922Z,980.52
2018-12-10T08:54:32.936Z,980.62
2018-12-10T08:55:32.899Z,980.53
2018-12-10T08:56:34.369Z,980.57
2018-12-10T08:57:32.901Z,980.63
2018-12-10T08:58:32.869Z,980.62
2018-12-10T08:59:32.875Z,980.61
2018-12-10T09:00:32.846Z,980.66
2018-12-10T09:01:32.826Z,980.64
2018-12-10T09:02:32.824Z,980.75
2018-12-10T09:03:32.813Z,980.61
2018-12-10T09:04:32.809Z,980.61
2018-12-10T09:05:32.786Z,980.59
2018-12-10T09:06:32.776Z,980.57
2018-12-10T09:07:32.765Z,980.61
2018-12-10T09:08:32.753Z,980.57
2018-12-10T09:09:32.752Z,980.55
2018-12-10T09:10:34.635Z,980.58
2018-12-10T09:11:32.719Z,980.55
2018-12-10T09:12:32.710Z,980.56
2018-12-10T09:13:32.685Z,980.56
2018-12-10T09:14:32.692Z,980.59
2018-12-10T09:15:32.672Z,980.60
2018-12-10T09:16:32.661Z,980.60
2018-12-10T09:17:32.650Z,980.62
2018-12-10T09:18:32.638Z,980.60
2018-12-10T09:19:32.694Z,980.63
2018-12-10T09:20:32.620Z,980.53
2018-12-10T09:21:32.606Z,980.60
2018-12-10T09:22:32.593Z,980.55
2018-12-10T09:23:32.586Z,980.58
2018-12-10T09:24:32.583Z,980.58
2018-12-10T09:25:32.561Z,980.53
2018-12-10T09:26:32.548Z,980.58
2018-12-10T09:27:32.543Z,980.51
2018-12-10T09:28:32.527Z,980.58
2018-12-10T09:29:32.615Z,980.53
2018-12-10T09:30:32.507Z,980.57
2018-12-10T09:31:32.493Z,980.67
2018-12-10T09:32:32.483Z,980.59
2018-12-10T09:33:32.471Z,980.68
2018-12-10T09:34:32.469Z,980.62
2018-12-10T09:35:32.450Z,980.56
2018-12-10T09:36:32.433Z,980.69
2018-12-10T09:37:32.420Z,980.76
2018-12-10T09:38:32.412Z,980.57
2018-12-10T09:39:32.413Z,980.75
2018-12-10T09:40:32.393Z,980.72
2018-12-10T09:41:32.375Z,980.76
2018-12-10T09:42:32.371Z,980.85
2018-12-10T09:43:32.354Z,980.92
2018-12-10T09:44:32.356Z,980.86
2018-12-10T09:45:32.333Z,980.95
2018-12-10T09:46:32.318Z,980.89
2018-12-10T09:47:32.306Z,980.92
2018-12-10T09:48:32.295Z,980.92
2018-12-10T09:49:32.295Z,980.94
2018-12-10T09:50:32.273Z,981.00
2018-12-10T09:51:32.263Z,981.04
2018-12-10T09:52:32.251Z,981.01
2018-12-10T09:53:32.239Z,981.03
2018-12-10T09:54:32.245Z,981.09
2018-12-10T09:55:32.217Z,981.16
2018-12-10T09:56:32.206Z,981.06
2018-12-10T09:57:32.199Z,981.07
2018-12-10T09:58:32.185Z,981.00
2018-12-10T09:59:32.188Z,981.01
2018-12-10T10:00:32.149Z,981.10
2018-12-10T10:01:32.150Z,981.09
2018-12-10T10:02:32.139Z,981.08
2018-12-10T10:03:32.127Z,981.09
2018-12-10T10:04:32.126Z,981.00
2018-12-10T10:05:32.103Z,981.02
2018-12-10T10:06:32.094Z,981.04
2018-12-10T10:07:32.081Z,981.01
2018-12-10T10:08:32.069Z,981.05
2018-12-10T10:09:32.076Z,981.02
2018-12-10T10:10:32.047Z,981.02
2018-12-10T10:11:32.092Z,981.03
2018-12-10T10:12:32.111Z,981.02
2018-12-10T10:13:32.012Z,981.07
2018-12-10T10:14:32.016Z,981.04
2018-12-10T10:15:31.998Z,981.05
2018-12-10T10:16:31.982Z,981.04
2018-12-10T10:17:31.969Z,981.03
2018-12-10T10:18:31.961Z,980.99
2018-12-10T10:19:31.959Z,981.04
2018-12-10T10:20:31.934Z,981.04
2018-12-10T10:21:31.922Z,980.95
2018-12-10T10:22:31.911Z,980.95
2018-12-10T10:23:31.901Z,981.02
2018-12-10T10:24:31.902Z,980.99
2018-12-10T10:25:31.878Z,980.96
2018-12-10T10:26:31.862Z,980.90
2018-12-10T10:27:31.856Z,980.93
2018-12-10T10:28:31.843Z,981.01
2018-12-10T10:29:31.845Z,981.03
2018-12-10T10:30:31.822Z,981.05
2018-12-10T10:31:31.808Z,980.87
2018-12-10T10:32:31.799Z,980.91
2018-12-10T10:33:32.434Z,980.95
2018-12-10T10:34:31.793Z,980.89
2018-12-10T10:35:31.769Z,980.85
2018-12-10T10:36:31.750Z,980.82
2018-12-10T10:37:31.738Z,980.96
2018-12-10T10:38:31.728Z,980.95
2018-12-10T10:39:31.732Z,980.98
2018-12-10T10:40:31.711Z,980.99
2018-12-10T10:41:31.696Z,981.01
2018-12-10T10:42:31.681Z,980.95
2018-12-10T10:43:31.669Z,981.00
2018-12-10T10:44:31.672Z,981.08
2018-12-10T10:45:34.841Z,981.07
2018-12-10T10:46:31.637Z,981.03
2018-12-10T10:47:31.630Z,981.01
2018-12-10T10:48:31.616Z,981.09
2018-12-10T10:49:31.614Z,981.07
2018-12-10T10:50:31.591Z,981.10
2018-12-10T10:51:31.582Z,981.07
2018-12-10T10:52:33.274Z,980.95
2018-12-10T10:53:31.556Z,980.95
2018-12-10T10:54:31.737Z,980.95
2018-12-10T10:55:31.535Z,980.87
2018-12-10T10:56:31.527Z,980.84
2018-12-10T10:57:31.641Z,980.86
2018-12-10T10:58:31.507Z,980.83
2018-12-10T10:59:31.490Z,980.80
2018-12-10T11:00:31.489Z,980.86
2018-12-10T11:01:31.467Z,980.80
2018-12-10T11:02:31.458Z,980.76
2018-12-10T11:03:31.449Z,980.73
2018-12-10T11:04:37.573Z,980.67
2018-12-10T11:05:32.428Z,980.67
2018-12-10T11:06:31.409Z,980.67
2018-12-10T11:07:31.394Z,980.65
2018-12-10T11:08:31.389Z,980.70
2018-12-10T11:09:31.373Z,980.69
2018-12-10T11:10:31.378Z,980.69
2018-12-10T11:11:31.353Z,980.72
2018-12-10T11:12:31.338Z,980.73
2018-12-10T11:13:31.326Z,980.76
2018-12-10T11:14:31.317Z,980.72
2018-12-10T11:15:31.321Z,980.82
2018-12-10T11:16:31.292Z,980.80
2018-12-10T11:17:31.283Z,980.83
2018-12-10T11:18:31.272Z,980.77
2018-12-10T11:19:31.406Z,980.74
2018-12-10T11:20:31.261Z,980.80
2018-12-10T11:21:31.244Z,980.74
2018-12-10T11:22:33.248Z,980.78
2018-12-10T11:23:31.216Z,980.73
2018-12-10T11:24:31.203Z,980.71
2018-12-10T11:25:31.203Z,980.73
2018-12-10T11:26:31.181Z,980.70
2018-12-10T11:27:31.168Z,980.72
2018-12-10T11:28:31.160Z,980.69
2018-12-10T11:29:31.145Z,980.71
2018-12-10T11:30:31.148Z,980.71
2018-12-10T11:31:31.131Z,980.71
2018-12-10T11:32:31.180Z,980.72
2018-12-10T11:33:31.100Z,980.70
2018-12-10T11:34:31.095Z,980.66
2018-12-10T11:35:33.169Z,980.69
2018-12-10T11:36:31.067Z,980.71
2018-12-10T11:37:31.055Z,980.71
2018-12-10T11:38:31.045Z,980.73
2018-12-10T11:39:31.031Z,980.72
2018-12-10T11:40:31.029Z,980.73
2018-12-10T11:41:31.010Z,980.69
2018-12-10T11:42:30.999Z,980.66
2018-12-10T11:43:30.989Z,980.59
2018-12-10T11:44:30.976Z,980.69
2018-12-10T11:45:30.972Z,980.65
2018-12-10T11:46:30.953Z,980.66
2018-12-10T11:47:30.938Z,980.54
2018-12-10T11:48:30.927Z,980.61
2018-12-10T11:49:30.915Z,980.62
2018-12-10T11:50:30.916Z,980.55
2018-12-10T11:51:30.893Z,980.60
2018-12-10T11:52:30.871Z,980.56
2018-12-10T11:53:30.875Z,980.56
2018-12-10T11:54:30.864Z,980.56
2018-12-10T11:55:30.873Z,980.55
2018-12-10T11:56:30.843Z,980.50
2018-12-10T11:57:30.825Z,980.46
2018-12-10T11:58:30.815Z,980.47
2018-12-10T11:59:30.832Z,980.49
2018-12-10T12:01:40.529Z,980.49
2018-12-10T12:02:40.513Z,980.54
2018-12-10T12:03:40.505Z,980.45
2018-12-10T12:04:40.494Z,980.47
2018-12-10T12:05:42.112Z,980.51
2018-12-10T12:06:40.469Z,980.44
2018-12-10T12:07:40.456Z,980.42
2018-12-10T12:08:40.443Z,980.46
2018-12-10T12:09:40.440Z,980.42
2018-12-10T12:10:40.434Z,980.46
2018-12-10T12:11:40.407Z,980.43
2018-12-10T12:12:40.399Z,980.41
2018-12-10T12:13:40.379Z,980.36
2018-12-10T12:14:40.373Z,980.33
2018-12-10T12:15:40.373Z,980.38
2018-12-10T12:16:40.350Z,980.41
2018-12-10T12:17:40.343Z,980.37
2018-12-10T12:18:40.328Z,980.41
2018-12-10T12:19:40.316Z,980.30
2018-12-10T12:20:40.336Z,980.35
2018-12-10T12:21:40.289Z,980.39
2018-12-10T12:22:40.282Z,980.28
2018-12-10T12:23:40.284Z,980.33
2018-12-10T12:24:40.263Z,980.33
2018-12-10T12:25:40.258Z,980.34
2018-12-10T12:26:40.238Z,980.37
2018-12-10T12:27:40.276Z,980.36
2018-12-10T12:28:40.216Z,980.39
2018-12-10T12:29:40.205Z,980.38
2018-12-10T12:30:40.205Z,980.41
2018-12-10T12:31:40.186Z,980.34
2018-12-10T12:32:40.175Z,980.42
2018-12-10T12:33:40.161Z,980.42
2018-12-10T12:34:40.148Z,980.47
2018-12-10T12:35:40.149Z,980.37
2018-12-10T12:36:40.125Z,980.41
2018-12-10T12:37:40.113Z,980.44
2018-12-10T12:38:40.106Z,980.37
2018-12-10T12:39:40.096Z,980.44
2018-12-10T12:40:40.092Z,980.32
2018-12-10T12:41:40.068Z,980.33
2018-12-10T12:42:40.057Z,980.30
2018-12-10T12:43:40.044Z,980.34
2018-12-10T12:44:40.034Z,980.32
2018-12-10T12:45:40.035Z,980.37
2018-12-10T12:46:40.014Z,980.25
2018-12-10T12:47:40.002Z,980.30
2018-12-10T12:48:39.998Z,980.29
2018-12-10T12:49:39.979Z,980.26
2018-12-10T12:50:39.966Z,980.27
2018-12-10T12:51:39.957Z,980.24
2018-12-10T12:52:39.944Z,980.17
2018-12-10T12:53:39.933Z,980.16
2018-12-10T12:54:39.941Z,980.15
2018-12-10T12:55:39.926Z,980.21
2018-12-10T12:56:39.898Z,980.19
2018-12-10T12:57:39.909Z,980.23
2018-12-10T12:58:44.103Z,980.23
2018-12-10T12:59:39.868Z,980.25
2018-12-10T13:00:42.049Z,980.19
2018-12-10T13:01:39.842Z,980.21
2018-12-10T13:02:39.839Z,980.10
2018-12-10T13:03:41.830Z,980.16
2018-12-10T13:04:41.808Z,980.19
2018-12-10T13:05:39.968Z,980.15
2018-12-10T13:06:39.797Z,980.18
2018-12-10T13:07:39.775Z,980.18
2018-12-10T13:08:39.770Z,980.23
2018-12-10T13:09:39.763Z,980.15
2018-12-10T13:10:41.731Z,980.15
2018-12-10T13:11:39.742Z,980.18
2018-12-10T13:12:42.573Z,980.18
2018-12-10T13:13:39.723Z,980.16
2018-12-10T13:14:41.977Z,980.21
2018-12-10T13:15:42.128Z,980.21
2018-12-10T13:16:39.693Z,980.19
2018-12-10T13:17:39.672Z,980.29
2018-12-10T13:18:39.651Z,980.18
2018-12-10T13:19:39.659Z,980.22
2018-12-10T13:20:39.650Z,980.19
2018-12-10T13:21:39.616Z,980.32
2018-12-10T13:22:47.081Z,980.37
2018-12-10T13:23:40.591Z,980.43
2018-12-10T13:24:39.591Z,980.39
2018-12-10T13:25:39.614Z,980.47
2018-12-10T13:26:39.561Z,980.42
2018-12-10T13:27:39.554Z,980.45
2018-12-10T13:28:39.584Z,980.45
2018-12-10T13:29:39.535Z,980.46
2018-12-10T13:30:39.507Z,980.49
2018-12-10T13:31:39.522Z,980.51
2018-12-10T13:32:39.511Z,980.50
2018-12-10T13:33:39.494Z,980.52
2018-12-10T13:34:39.469Z,980.55
2018-12-10T13:35:39.468Z,980.57
2018-12-10T13:36:39.476Z,980.58
2018-12-10T13:37:39.440Z,980.62
2018-12-10T13:38:39.436Z,980.69
2018-12-10T13:39:39.416Z,980.74
2018-12-10T13:40:39.405Z,980.76
2018-12-10T13:41:39.427Z,980.72
2018-12-10T13:42:39.402Z,980.64
2018-12-10T13:43:39.376Z,980.63
2018-12-10T13:44:39.356Z,980.57
2018-12-10T13:45:39.344Z,980.58
2018-12-10T13:46:39.361Z,980.54
2018-12-10T13:47:39.325Z,980.53
2018-12-10T13:48:39.315Z,980.48
2018-12-10T13:49:39.299Z,980.51
2018-12-10T13:50:39.296Z,980.49
2018-12-10T13:51:39.305Z,980.44
2018-12-10T13:52:39.265Z,980.48
2018-12-10T13:53:39.258Z,980.49
2018-12-10T13:54:39.244Z,980.48
2018-12-10T13:55:39.231Z,980.47
2018-12-10T13:56:39.266Z,980.43
2018-12-10T13:57:39.234Z,980.46
2018-12-10T13:58:39.205Z,980.45
2018-12-10T13:59:39.192Z,980.40
2018-12-10T14:00:39.175Z,980.44
2018-12-10T14:01:39.184Z,980.45
2018-12-10T14:02:39.149Z,980.48
2018-12-10T14:03:39.147Z,980.52
2018-12-10T14:04:39.129Z,980.52
2018-12-10T14:05:39.136Z,980.52
2018-12-10T14:06:39.139Z,980.52
2018-12-10T14:07:39.087Z,980.53
2018-12-10T14:08:39.083Z,980.55
2018-12-10T14:09:39.075Z,980.58
2018-12-10T14:10:39.057Z,980.53
2018-12-10T14:11:39.058Z,980.48
2018-12-10T14:12:39.055Z,980.41
2018-12-10T14:13:39.043Z,980.37
2018-12-10T14:14:39.023Z,980.35
2018-12-10T14:15:39.010Z,980.39
2018-12-10T14:16:38.995Z,980.38
2018-12-10T14:17:39.012Z,980.37
2018-12-10T14:18:38.972Z,980.43
2018-12-10T14:19:38.965Z,980.42
2018-12-10T14:20:38.965Z,980.39
2018-12-10T14:21:38.943Z,980.39
2018-12-10T14:22:38.946Z,980.41
2018-12-10T14:23:38.915Z,980.40
2018-12-10T14:24:38.912Z,980.36
2018-12-10T14:25:38.903Z,980.40
2018-12-10T14:26:38.901Z,980.39
2018-12-10T14:27:38.891Z,980.36
2018-12-10T14:28:38.867Z,980.36
2018-12-10T14:29:38.839Z,980.34
2018-12-10T14:30:38.831Z,980.34
2018-12-10T14:31:38.822Z,980.31
2018-12-10T14:32:38.825Z,980.31
2018-12-10T14:33:38.798Z,980.30
2018-12-10T14:34:38.790Z,980.37
2018-12-10T14:35:38.775Z,980.35
2018-12-10T14:36:38.767Z,980.30
2018-12-10T14:37:38.766Z,980.34
2018-12-10T14:38:38.741Z,980.33
2018-12-10T14:39:38.733Z,980.36
2018-12-10T14:40:38.734Z,980.35
2018-12-10T14:41:38.728Z,980.33
2018-12-10T14:42:38.708Z,980.36
2018-12-10T14:43:38.684Z,980.35
2018-12-10T14:44:38.674Z,980.38
2018-12-10T14:45:38.664Z,980.47
2018-12-10T14:46:38.651Z,980.44
2018-12-10T14:47:38.652Z,980.47
2018-12-10T14:48:38.629Z,980.52
2018-12-10T14:49:38.617Z,980.49
2018-12-10T14:50:38.606Z,980.59
2018-12-10T14:51:38.594Z,980.61
2018-12-10T14:52:38.611Z,980.71
2018-12-10T14:53:38.586Z,980.62
2018-12-10T14:54:38.568Z,980.66
2018-12-10T14:55:38.550Z,980.72
2018-12-10T14:56:38.539Z,980.65
2018-12-10T14:57:38.538Z,980.60
2018-12-10T14:58:38.517Z,980.64
2018-12-10T14:59:38.504Z,980.61
2018-12-10T15:00:38.492Z,980.62
2018-12-10T15:01:38.483Z,980.60
2018-12-10T15:02:38.483Z,980.65
2018-12-10T15:03:38.458Z,980.69
2018-12-10T15:04:38.448Z,980.69
2018-12-10T15:05:38.436Z,980.69
2018-12-10T15:06:38.424Z,980.66
2018-12-10T15:07:38.429Z,980.70
2018-12-10T15:08:38.406Z,980.70
2018-12-10T15:09:38.390Z,980.64
2018-12-10T15:10:38.379Z,980.70
2018-12-10T15:11:38.368Z,980.68
2018-12-10T15:12:38.368Z,980.72
2018-12-10T15:13:38.345Z,980.68
2018-12-10T15:14:38.339Z,980.68
2018-12-10T15:15:38.327Z,980.69
2018-12-10T15:16:38.308Z,980.63
2018-12-10T15:17:38.310Z,980.66
2018-12-10T15:18:38.293Z,980.63
2018-12-10T15:19:38.278Z,980.64
2018-12-10T15:20:38.267Z,980.67
2018-12-10T15:21:38.255Z,980.63
2018-12-10T15:22:38.257Z,980.64
2018-12-10T15:23:38.233Z,980.72
2018-12-10T15:24:38.221Z,980.74
2018-12-10T15:25:38.218Z,980.69
2018-12-10T15:26:38.199Z,980.71
2018-12-10T15:27:38.208Z,980.69
2018-12-10T15:28:38.178Z,980.83
2018-12-10T15:29:38.161Z,980.69
2018-12-10T15:30:38.154Z,980.70
2018-12-10T15:31:38.138Z,980.73
2018-12-10T15:32:38.183Z,980.67
2018-12-10T15:33:38.116Z,980.65
2018-12-10T15:34:38.108Z,980.75
2018-12-10T15:35:38.098Z,980.72
2018-12-10T15:36:38.083Z,980.79
2018-12-10T15:37:38.077Z,980.72
2018-12-10T15:38:38.074Z,980.62
2018-12-10T15:39:38.052Z,980.61
2018-12-10T15:40:38.040Z,980.71
2018-12-10T15:41:38.025Z,980.71
2018-12-10T15:42:38.022Z,980.68
2018-12-10T15:43:38.015Z,980.69
2018-12-10T15:44:37.991Z,980.62
2018-12-10T15:45:37.979Z,980.63
2018-12-10T15:46:37.968Z,980.67
2018-12-10T15:47:37.958Z,980.66
2018-12-10T15:48:37.963Z,980.62
2018-12-10T15:49:37.935Z,980.61
2018-12-10T15:50:37.927Z,980.61
2018-12-10T15:51:37.915Z,980.66
2018-12-10T15:52:37.900Z,980.56
2018-12-10T15:53:37.907Z,980.53
2018-12-10T15:54:37.878Z,980.46
2018-12-10T15:55:37.872Z,980.47
2018-12-10T15:56:37.859Z,980.43
2018-12-10T15:57:37.847Z,980.43
2018-12-10T15:58:37.869Z,980.46
2018-12-10T15:59:37.821Z,980.42
2018-12-10T16:00:37.818Z,980.44
2018-12-10T16:01:37.799Z,980.41
2018-12-10T16:02:37.789Z,980.39
2018-12-10T16:03:37.789Z,980.37
2018-12-10T16:04:37.766Z,980.41
2018-12-10T16:05:37.761Z,980.36
2018-12-10T16:06:37.744Z,980.39
2018-12-10T16:07:37.736Z,980.44
2018-12-10T16:08:37.737Z,980.39
2018-12-10T16:09:37.713Z,980.33
2018-12-10T16:10:37.700Z,980.32
2018-12-10T16:11:37.687Z,980.28
2018-12-10T16:12:37.677Z,980.31
2018-12-10T16:13:37.681Z,980.31
2018-12-10T16:14:37.655Z,980.33
2018-12-10T16:15:37.642Z,980.37
2018-12-10T16:16:37.619Z,980.37
2018-12-10T16:17:37.618Z,980.36
2018-12-10T16:18:39.598Z,980.40
2018-12-10T16:19:37.602Z,980.47
2018-12-10T16:20:37.585Z,980.58
2018-12-10T16:21:37.573Z,980.48
2018-12-10T16:22:37.562Z,980.47
2018-12-10T16:23:37.567Z,980.53
2018-12-10T16:24:37.527Z,980.60
2018-12-10T16:25:37.534Z,980.63
2018-12-10T16:26:37.519Z,980.66
2018-12-10T16:27:37.505Z,980.71
2018-12-10T16:28:37.510Z,980.71
2018-12-10T16:29:37.493Z,980.69
2018-12-10T16:30:39.312Z,980.69
2018-12-10T16:31:37.476Z,980.69
2018-12-10T16:32:39.401Z,980.72
2018-12-10T16:33:37.451Z,980.73
2018-12-10T16:34:39.053Z,980.69
2018-12-10T16:35:37.415Z,980.75
2018-12-10T16:36:39.409Z,980.79
2018-12-10T16:37:37.393Z,980.83
2018-12-10T16:38:37.395Z,980.83
2018-12-10T16:39:37.371Z,980.81
2018-12-10T16:40:37.365Z,980.82
2018-12-10T16:41:37.359Z,980.78
2018-12-10T16:42:37.336Z,980.76
2018-12-10T16:43:39.663Z,980.79
2018-12-10T16:44:37.317Z,980.79
2018-12-10T16:45:37.303Z,980.87
2018-12-10T16:46:37.307Z,980.86
2018-12-10T16:47:37.279Z,980.94
2018-12-10T16:48:37.282Z,980.93
2018-12-10T16:49:37.258Z,980.95
2018-12-10T16:50:37.246Z,980.94
2018-12-10T16:51:37.237Z,980.94
2018-12-10T16:52:37.230Z,980.95
2018-12-10T16:53:37.237Z,980.94
2018-12-10T16:54:37.200Z,980.93
2018-12-10T16:55:37.185Z,980.91
2018-12-10T16:56:37.182Z,980.96
2018-12-10T16:57:37.171Z,980.91
2018-12-10T16:58:37.167Z,980.93
2018-12-10T16:59:37.145Z,980.93
2018-12-10T17:00:37.133Z,980.95
2018-12-10T17:01:37.118Z,980.94
2018-12-10T17:02:37.109Z,980.93
2018-12-10T17:03:37.120Z,980.89
2018-12-10T17:04:37.088Z,980.89
2018-12-10T17:05:37.078Z,981.00
2018-12-10T17:06:37.066Z,981.00
2018-12-10T17:07:37.053Z,980.93
2018-12-10T17:08:37.056Z,980.94
2018-12-10T17:09:37.723Z,980.94
2018-12-10T17:10:37.021Z,980.98
2018-12-10T17:11:37.013Z,980.94
2018-12-10T17:12:36.997Z,980.93
2018-12-10T17:13:36.998Z,980.93
2018-12-10T17:14:37.085Z,980.92
2018-12-10T17:15:36.964Z,980.90
2018-12-10T17:16:36.961Z,980.85
2018-12-10T17:17:36.945Z,980.79
2018-12-10T17:18:36.942Z,980.78
2018-12-10T17:19:36.939Z,980.78
2018-12-10T17:20:36.902Z,980.74
2018-12-10T17:21:36.895Z,980.73
2018-12-10T17:22:36.880Z,980.77
2018-12-10T17:23:36.887Z,980.74
2018-12-10T17:24:36.857Z,980.72
2018-12-10T17:25:36.846Z,980.76
2018-12-10T17:26:36.837Z,980.74
2018-12-10T17:27:36.824Z,980.73
2018-12-10T17:28:36.825Z,980.74
2018-12-10T17:29:36.805Z,980.75